sensor_id;sensor_type;location;lat;lon;timestamp;P1;durP1;ratioP1;P2;durP2;ratioP2
58581;SDS011;44361;51.476;5.700;2023-02-15T00:01:51;71.32;;;30.10;;
58581;SDS011;44361;51.476;5.700;2023-02-15T00:04:19;69.05;;;30.20;;
58581;SDS011;44361;51.476;5.700;2023-02-15T00:06:47;66.90;;;29.88;;
58581;SDS011;44361;51.476;5.700;2023-02-15T00:09:13;65.57;;;29.63;;
58581;SDS011;44361;51.476;5.700;2023-02-15T00:11:39;67.95;;;28.95;;
58581;SDS011;44361;51.476;5.700;2023-02-15T00:16:32;73.55;;;29.83;;
58581;SDS011;44361;51.476;5.700;2023-02-15T00:18:58;70.55;;;29.50;;
58581;SDS011;44361;51.476;5.700;2023-02-15T00:21:26;74.80;;;31.10;;
58581;SDS011;44361;51.476;5.700;2023-02-15T00:24:00;68.55;;;30.73;;
58581;SDS011;44361;51.476;5.700;2023-02-15T00:26:26;80.18;;;30.10;;
58581;SDS011;44361;51.476;5.700;2023-02-15T00:28:52;74.80;;;32.75;;
58581;SDS011;44361;51.476;5.700;2023-02-15T00:31:19;76.57;;;31.33;;
58581;SDS011;44361;51.476;5.700;2023-02-15T00:33:45;72.85;;;30.95;;
58581;SDS011;44361;51.476;5.700;2023-02-15T00:36:11;69.95;;;29.75;;
58581;SDS011;44361;51.476;5.700;2023-02-15T00:38:37;72.20;;;30.52;;
58581;SDS011;44361;51.476;5.700;2023-02-15T00:41:03;67.15;;;30.17;;
58581;SDS011;44361;51.476;5.700;2023-02-15T00:43:30;69.72;;;31.38;;
58581;SDS011;44361;51.476;5.700;2023-02-15T00:45:57;71.25;;;29.27;;
58581;SDS011;44361;51.476;5.700;2023-02-15T00:48:23;68.75;;;29.23;;
58581;SDS011;44361;51.476;5.700;2023-02-15T00:50:49;68.20;;;29.17;;
58581;SDS011;44361;51.476;5.700;2023-02-15T00:53:23;76.90;;;29.73;;
58581;SDS011;44361;51.476;5.700;2023-02-15T00:55:49;63.55;;;30.48;;
58581;SDS011;44361;51.476;5.700;2023-02-15T00:58:15;59.33;;;27.83;;
58581;SDS011;44361;51.476;5.700;2023-02-15T01:00:41;66.65;;;29.02;;
58581;SDS011;44361;51.476;5.700;2023-02-15T01:03:08;76.22;;;30.05;;
58581;SDS011;44361;51.476;5.700;2023-02-15T01:05:34;65.22;;;28.30;;
58581;SDS011;44361;51.476;5.700;2023-02-15T01:08:00;71.07;;;29.75;;
58581;SDS011;44361;51.476;5.700;2023-02-15T01:10:25;72.07;;;30.52;;
58581;SDS011;44361;51.476;5.700;2023-02-15T01:12:52;67.28;;;29.60;;
58581;SDS011;44361;51.476;5.700;2023-02-15T01:15:18;71.18;;;29.35;;
58581;SDS011;44361;51.476;5.700;2023-02-15T01:17:43;66.25;;;28.42;;
58581;SDS011;44361;51.476;5.700;2023-02-15T01:20:14;66.40;;;29.40;;
58581;SDS011;44361;51.476;5.700;2023-02-15T01:22:40;62.38;;;28.58;;
58581;SDS011;44361;51.476;5.700;2023-02-15T01:25:05;74.07;;;28.23;;
58581;SDS011;44361;51.476;5.700;2023-02-15T01:27:31;72.28;;;29.17;;
58581;SDS011;44361;51.476;5.700;2023-02-15T01:29:57;71.40;;;27.35;;
58581;SDS011;44361;51.476;5.700;2023-02-15T01:32:22;70.25;;;26.88;;
58581;SDS011;44361;51.476;5.700;2023-02-15T01:34:48;61.03;;;27.20;;
58581;SDS011;44361;51.476;5.700;2023-02-15T01:37:13;63.35;;;27.67;;
58581;SDS011;44361;51.476;5.700;2023-02-15T01:39:39;69.43;;;29.40;;
58581;SDS011;44361;51.476;5.700;2023-02-15T01:42:04;65.57;;;27.52;;
58581;SDS011;44361;51.476;5.700;2023-02-15T01:47:23;68.38;;;27.65;;
58581;SDS011;44361;51.476;5.700;2023-02-15T01:52:51;70.32;;;27.35;;
58581;SDS011;44361;51.476;5.700;2023-02-15T01:55:25;65.72;;;28.08;;
58581;SDS011;44361;51.476;5.700;2023-02-15T01:57:54;65.35;;;28.50;;
58581;SDS011;44361;51.476;5.700;2023-02-15T02:00:19;69.45;;;29.85;;
58581;SDS011;44361;51.476;5.700;2023-02-15T02:02:46;65.30;;;27.42;;
58581;SDS011;44361;51.476;5.700;2023-02-15T02:05:16;69.10;;;27.83;;
58581;SDS011;44361;51.476;5.700;2023-02-15T02:07:42;62.88;;;27.67;;
58581;SDS011;44361;51.476;5.700;2023-02-15T02:10:12;74.57;;;28.27;;
58581;SDS011;44361;51.476;5.700;2023-02-15T02:12:40;62.13;;;25.77;;
58581;SDS011;44361;51.476;5.700;2023-02-15T02:15:08;70.07;;;26.67;;
58581;SDS011;44361;51.476;5.700;2023-02-15T02:20:36;63.88;;;27.25;;
58581;SDS011;44361;51.476;5.700;2023-02-15T02:29:09;57.40;;;25.88;;
58581;SDS011;44361;51.476;5.700;2023-02-15T02:31:54;63.75;;;25.80;;
58581;SDS011;44361;51.476;5.700;2023-02-15T02:34:45;62.20;;;26.38;;
58581;SDS011;44361;51.476;5.700;2023-02-15T02:37:37;63.97;;;26.60;;
58581;SDS011;44361;51.476;5.700;2023-02-15T02:40:17;65.63;;;25.48;;
58581;SDS011;44361;51.476;5.700;2023-02-15T02:43:16;63.80;;;25.00;;
58581;SDS011;44361;51.476;5.700;2023-02-15T02:45:57;54.75;;;25.35;;
58581;SDS011;44361;51.476;5.700;2023-02-15T02:48:44;62.83;;;26.10;;
58581;SDS011;44361;51.476;5.700;2023-02-15T02:51:10;67.70;;;26.13;;
58581;SDS011;44361;51.476;5.700;2023-02-15T02:53:35;72.95;;;27.35;;
58581;SDS011;44361;51.476;5.700;2023-02-15T02:56:19;62.67;;;26.58;;
58581;SDS011;44361;51.476;5.700;2023-02-15T03:01:32;72.35;;;27.00;;
58581;SDS011;44361;51.476;5.700;2023-02-15T03:04:07;66.68;;;24.77;;
58581;SDS011;44361;51.476;5.700;2023-02-15T03:06:50;55.45;;;24.45;;
58581;SDS011;44361;51.476;5.700;2023-02-15T03:09:25;62.08;;;25.55;;
58581;SDS011;44361;51.476;5.700;2023-02-15T03:12:07;64.70;;;25.52;;
58581;SDS011;44361;51.476;5.700;2023-02-15T03:14:45;58.53;;;25.13;;
58581;SDS011;44361;51.476;5.700;2023-02-15T03:17:15;74.05;;;27.02;;
58581;SDS011;44361;51.476;5.700;2023-02-15T03:19:42;59.30;;;25.73;;
58581;SDS011;44361;51.476;5.700;2023-02-15T03:22:15;57.10;;;25.52;;
58581;SDS011;44361;51.476;5.700;2023-02-15T03:27:11;64.68;;;26.33;;
58581;SDS011;44361;51.476;5.700;2023-02-15T03:29:46;64.53;;;26.70;;
58581;SDS011;44361;51.476;5.700;2023-02-15T03:32:21;66.53;;;25.45;;
58581;SDS011;44361;51.476;5.700;2023-02-15T03:34:50;59.72;;;24.52;;
58581;SDS011;44361;51.476;5.700;2023-02-15T03:37:22;69.43;;;26.73;;
58581;SDS011;44361;51.476;5.700;2023-02-15T03:39:54;58.10;;;25.45;;
58581;SDS011;44361;51.476;5.700;2023-02-15T03:42:44;61.03;;;24.30;;
58581;SDS011;44361;51.476;5.700;2023-02-15T03:45:13;57.88;;;24.42;;
58581;SDS011;44361;51.476;5.700;2023-02-15T03:47:47;69.03;;;24.90;;
58581;SDS011;44361;51.476;5.700;2023-02-15T03:50:18;64.05;;;24.38;;
58581;SDS011;44361;51.476;5.700;2023-02-15T03:53:07;56.10;;;24.65;;
58581;SDS011;44361;51.476;5.700;2023-02-15T03:55:35;60.35;;;24.42;;
58581;SDS011;44361;51.476;5.700;2023-02-15T03:58:01;70.65;;;26.08;;
58581;SDS011;44361;51.476;5.700;2023-02-15T04:00:48;54.95;;;24.35;;
58581;SDS011;44361;51.476;5.700;2023-02-15T04:04:01;57.40;;;23.40;;
58581;SDS011;44361;51.476;5.700;2023-02-15T04:06:32;66.57;;;25.15;;
58581;SDS011;44361;51.476;5.700;2023-02-15T04:08:58;67.25;;;24.95;;
58581;SDS011;44361;51.476;5.700;2023-02-15T04:11:42;73.72;;;24.85;;
58581;SDS011;44361;51.476;5.700;2023-02-15T04:14:07;75.95;;;26.52;;
58581;SDS011;44361;51.476;5.700;2023-02-15T04:16:51;65.63;;;24.88;;
58581;SDS011;44361;51.476;5.700;2023-02-15T04:19:17;65.20;;;25.38;;
58581;SDS011;44361;51.476;5.700;2023-02-15T04:22:01;68.95;;;25.58;;
58581;SDS011;44361;51.476;5.700;2023-02-15T04:24:45;67.93;;;25.02;;
58581;SDS011;44361;51.476;5.700;2023-02-15T04:27:29;65.82;;;25.92;;
58581;SDS011;44361;51.476;5.700;2023-02-15T04:29:54;68.30;;;25.75;;
58581;SDS011;44361;51.476;5.700;2023-02-15T04:32:20;72.47;;;27.55;;
58581;SDS011;44361;51.476;5.700;2023-02-15T04:34:45;71.13;;;26.63;;
58581;SDS011;44361;51.476;5.700;2023-02-15T04:37:11;66.28;;;25.95;;
58581;SDS011;44361;51.476;5.700;2023-02-15T04:39:36;71.05;;;26.83;;
58581;SDS011;44361;51.476;5.700;2023-02-15T04:42:02;66.38;;;26.15;;
58581;SDS011;44361;51.476;5.700;2023-02-15T04:44:27;68.60;;;24.85;;
58581;SDS011;44361;51.476;5.700;2023-02-15T04:46:53;71.00;;;24.98;;
58581;SDS011;44361;51.476;5.700;2023-02-15T04:49:19;64.70;;;26.63;;
58581;SDS011;44361;51.476;5.700;2023-02-15T04:51:45;70.82;;;26.08;;
58581;SDS011;44361;51.476;5.700;2023-02-15T04:54:10;61.45;;;26.17;;
58581;SDS011;44361;51.476;5.700;2023-02-15T04:56:36;62.45;;;25.48;;
58581;SDS011;44361;51.476;5.700;2023-02-15T04:59:02;77.53;;;27.42;;
58581;SDS011;44361;51.476;5.700;2023-02-15T05:01:28;69.57;;;25.20;;
58581;SDS011;44361;51.476;5.700;2023-02-15T05:03:53;72.93;;;25.02;;
58581;SDS011;44361;51.476;5.700;2023-02-15T05:06:19;60.97;;;23.83;;
58581;SDS011;44361;51.476;5.700;2023-02-15T05:08:45;75.00;;;26.52;;
58581;SDS011;44361;51.476;5.700;2023-02-15T05:11:10;69.95;;;27.48;;
58581;SDS011;44361;51.476;5.700;2023-02-15T05:13:36;65.25;;;25.08;;
58581;SDS011;44361;51.476;5.700;2023-02-15T05:16:01;69.47;;;27.15;;
58581;SDS011;44361;51.476;5.700;2023-02-15T05:18:27;76.38;;;26.95;;
58581;SDS011;44361;51.476;5.700;2023-02-15T05:20:52;66.93;;;26.25;;
58581;SDS011;44361;51.476;5.700;2023-02-15T05:23:18;73.65;;;25.48;;
58581;SDS011;44361;51.476;5.700;2023-02-15T05:25:50;76.65;;;27.65;;
58581;SDS011;44361;51.476;5.700;2023-02-15T05:28:35;70.43;;;27.23;;
58581;SDS011;44361;51.476;5.700;2023-02-15T05:31:05;74.47;;;28.35;;
58581;SDS011;44361;51.476;5.700;2023-02-15T05:33:36;78.45;;;28.48;;
58581;SDS011;44361;51.476;5.700;2023-02-15T05:36:02;80.40;;;28.25;;
58581;SDS011;44361;51.476;5.700;2023-02-15T05:38:29;84.32;;;29.95;;
58581;SDS011;44361;51.476;5.700;2023-02-15T05:40:54;84.88;;;29.63;;
58581;SDS011;44361;51.476;5.700;2023-02-15T05:43:21;85.18;;;27.88;;
58581;SDS011;44361;51.476;5.700;2023-02-15T05:45:47;80.22;;;28.52;;
58581;SDS011;44361;51.476;5.700;2023-02-15T05:48:14;91.53;;;30.27;;
58581;SDS011;44361;51.476;5.700;2023-02-15T05:50:40;80.13;;;28.23;;
58581;SDS011;44361;51.476;5.700;2023-02-15T05:53:06;83.50;;;30.27;;
58581;SDS011;44361;51.476;5.700;2023-02-15T05:55:32;75.38;;;29.30;;
58581;SDS011;44361;51.476;5.700;2023-02-15T05:57:57;90.88;;;30.70;;
58581;SDS011;44361;51.476;5.700;2023-02-15T06:00:23;105.40;;;31.67;;
58581;SDS011;44361;51.476;5.700;2023-02-15T06:02:50;109.03;;;31.05;;
58581;SDS011;44361;51.476;5.700;2023-02-15T06:05:15;88.88;;;29.73;;
58581;SDS011;44361;51.476;5.700;2023-02-15T06:07:44;86.75;;;31.30;;
58581;SDS011;44361;51.476;5.700;2023-02-15T06:10:10;99.40;;;31.98;;
58581;SDS011;44361;51.476;5.700;2023-02-15T06:12:36;95.00;;;30.65;;
58581;SDS011;44361;51.476;5.700;2023-02-15T06:15:01;97.80;;;33.05;;
58581;SDS011;44361;51.476;5.700;2023-02-15T06:17:27;97.97;;;30.58;;
58581;SDS011;44361;51.476;5.700;2023-02-15T06:19:53;98.32;;;31.08;;
58581;SDS011;44361;51.476;5.700;2023-02-15T06:22:19;105.32;;;32.38;;
58581;SDS011;44361;51.476;5.700;2023-02-15T06:24:45;95.80;;;32.40;;
58581;SDS011;44361;51.476;5.700;2023-02-15T06:27:11;106.95;;;32.40;;
58581;SDS011;44361;51.476;5.700;2023-02-15T06:29:36;105.07;;;32.85;;
58581;SDS011;44361;51.476;5.700;2023-02-15T06:32:02;100.40;;;31.73;;
58581;SDS011;44361;51.476;5.700;2023-02-15T06:34:28;98.13;;;32.78;;
58581;SDS011;44361;51.476;5.700;2023-02-15T06:36:53;93.47;;;30.52;;
58581;SDS011;44361;51.476;5.700;2023-02-15T06:39:19;102.45;;;32.08;;
58581;SDS011;44361;51.476;5.700;2023-02-15T06:41:44;85.50;;;29.00;;
58581;SDS011;44361;51.476;5.700;2023-02-15T06:44:10;109.00;;;30.77;;
58581;SDS011;44361;51.476;5.700;2023-02-15T06:46:35;101.68;;;31.40;;
58581;SDS011;44361;51.476;5.700;2023-02-15T06:49:01;110.43;;;33.22;;
58581;SDS011;44361;51.476;5.700;2023-02-15T06:51:26;95.07;;;32.00;;
58581;SDS011;44361;51.476;5.700;2023-02-15T06:53:52;92.35;;;32.05;;
58581;SDS011;44361;51.476;5.700;2023-02-15T06:56:17;98.57;;;31.00;;
58581;SDS011;44361;51.476;5.700;2023-02-15T06:58:43;91.20;;;31.48;;
58581;SDS011;44361;51.476;5.700;2023-02-15T07:01:10;100.72;;;32.55;;
58581;SDS011;44361;51.476;5.700;2023-02-15T07:03:36;107.45;;;31.52;;
58581;SDS011;44361;51.476;5.700;2023-02-15T07:06:02;98.95;;;32.53;;
58581;SDS011;44361;51.476;5.700;2023-02-15T07:08:31;113.38;;;34.40;;
58581;SDS011;44361;51.476;5.700;2023-02-15T07:10:56;116.43;;;35.47;;
58581;SDS011;44361;51.476;5.700;2023-02-15T07:13:42;111.32;;;33.30;;
58581;SDS011;44361;51.476;5.700;2023-02-15T07:16:08;116.53;;;35.88;;
58581;SDS011;44361;51.476;5.700;2023-02-15T07:18:33;115.30;;;36.25;;
58581;SDS011;44361;51.476;5.700;2023-02-15T07:20:59;109.38;;;36.63;;
58581;SDS011;44361;51.476;5.700;2023-02-15T07:23:24;122.97;;;37.75;;
58581;SDS011;44361;51.476;5.700;2023-02-15T07:25:56;125.10;;;36.22;;
58581;SDS011;44361;51.476;5.700;2023-02-15T07:28:22;136.40;;;43.03;;
58581;SDS011;44361;51.476;5.700;2023-02-15T07:30:47;114.95;;;36.65;;
58581;SDS011;44361;51.476;5.700;2023-02-15T07:33:13;134.95;;;38.08;;
58581;SDS011;44361;51.476;5.700;2023-02-15T07:35:51;129.27;;;37.42;;
58581;SDS011;44361;51.476;5.700;2023-02-15T07:38:19;122.25;;;36.70;;
58581;SDS011;44361;51.476;5.700;2023-02-15T07:40:45;121.93;;;37.83;;
58581;SDS011;44361;51.476;5.700;2023-02-15T07:43:11;145.60;;;39.30;;
58581;SDS011;44361;51.476;5.700;2023-02-15T07:45:37;131.38;;;39.13;;
58581;SDS011;44361;51.476;5.700;2023-02-15T07:48:03;133.90;;;40.15;;
58581;SDS011;44361;51.476;5.700;2023-02-15T07:50:30;120.93;;;38.65;;
58581;SDS011;44361;51.476;5.700;2023-02-15T07:52:56;124.60;;;39.63;;
58581;SDS011;44361;51.476;5.700;2023-02-15T07:55:22;125.25;;;39.63;;
58581;SDS011;44361;51.476;5.700;2023-02-15T07:57:48;132.48;;;40.78;;
58581;SDS011;44361;51.476;5.700;2023-02-15T08:00:15;150.82;;;40.80;;
58581;SDS011;44361;51.476;5.700;2023-02-15T08:02:42;146.75;;;39.72;;
58581;SDS011;44361;51.476;5.700;2023-02-15T08:05:13;141.68;;;41.17;;
58581;SDS011;44361;51.476;5.700;2023-02-15T08:07:38;153.27;;;42.17;;
58581;SDS011;44361;51.476;5.700;2023-02-15T08:10:04;150.80;;;40.60;;
58581;SDS011;44361;51.476;5.700;2023-02-15T08:12:30;136.60;;;41.25;;
58581;SDS011;44361;51.476;5.700;2023-02-15T08:14:56;145.82;;;43.88;;
58581;SDS011;44361;51.476;5.700;2023-02-15T08:17:21;143.00;;;43.70;;
58581;SDS011;44361;51.476;5.700;2023-02-15T08:19:47;140.25;;;43.13;;
58581;SDS011;44361;51.476;5.700;2023-02-15T08:22:13;145.95;;;45.03;;
58581;SDS011;44361;51.476;5.700;2023-02-15T08:24:39;146.52;;;43.53;;
58581;SDS011;44361;51.476;5.700;2023-02-15T08:27:06;153.45;;;44.38;;
58581;SDS011;44361;51.476;5.700;2023-02-15T08:29:34;118.65;;;40.47;;
58581;SDS011;44361;51.476;5.700;2023-02-15T08:32:11;147.65;;;44.42;;
58581;SDS011;44361;51.476;5.700;2023-02-15T08:34:38;159.40;;;46.13;;
58581;SDS011;44361;51.476;5.700;2023-02-15T08:37:05;148.57;;;46.08;;
58581;SDS011;44361;51.476;5.700;2023-02-15T08:39:31;140.52;;;44.17;;
58581;SDS011;44361;51.476;5.700;2023-02-15T08:41:57;142.63;;;45.67;;
58581;SDS011;44361;51.476;5.700;2023-02-15T08:44:23;138.18;;;43.67;;
58581;SDS011;44361;51.476;5.700;2023-02-15T08:46:49;139.52;;;45.28;;
58581;SDS011;44361;51.476;5.700;2023-02-15T08:49:16;145.93;;;43.85;;
58581;SDS011;44361;51.476;5.700;2023-02-15T08:51:43;145.45;;;44.75;;
58581;SDS011;44361;51.476;5.700;2023-02-15T08:54:10;127.15;;;41.80;;
58581;SDS011;44361;51.476;5.700;2023-02-15T08:56:38;131.98;;;44.88;;
58581;SDS011;44361;51.476;5.700;2023-02-15T08:59:05;127.82;;;43.03;;
58581;SDS011;44361;51.476;5.700;2023-02-15T09:01:36;123.97;;;42.92;;
58581;SDS011;44361;51.476;5.700;2023-02-15T09:04:03;130.73;;;44.10;;
58581;SDS011;44361;51.476;5.700;2023-02-15T09:06:31;108.32;;;39.63;;
58581;SDS011;44361;51.476;5.700;2023-02-15T09:08:56;105.72;;;42.15;;
58581;SDS011;44361;51.476;5.700;2023-02-15T09:11:24;109.63;;;39.60;;
58581;SDS011;44361;51.476;5.700;2023-02-15T09:16:25;99.72;;;39.10;;
58581;SDS011;44361;51.476;5.700;2023-02-15T09:18:52;84.50;;;37.08;;
58581;SDS011;44361;51.476;5.700;2023-02-15T09:21:19;83.15;;;36.25;;
58581;SDS011;44361;51.476;5.700;2023-02-15T09:23:48;79.82;;;35.45;;
58581;SDS011;44361;51.476;5.700;2023-02-15T09:26:19;79.60;;;35.85;;
58581;SDS011;44361;51.476;5.700;2023-02-15T09:28:46;73.15;;;33.15;;
58581;SDS011;44361;51.476;5.700;2023-02-15T09:33:43;65.15;;;29.92;;
58581;SDS011;44361;51.476;5.700;2023-02-15T09:36:24;59.00;;;27.67;;
58581;SDS011;44361;51.476;5.700;2023-02-15T09:38:55;60.15;;;26.77;;
58581;SDS011;44361;51.476;5.700;2023-02-15T09:54:48;48.90;;;24.73;;
58581;SDS011;44361;51.476;5.700;2023-02-15T10:00:02;47.90;;;24.65;;
58581;SDS011;44361;51.476;5.700;2023-02-15T10:02:49;46.00;;;23.75;;
58581;SDS011;44361;51.476;5.700;2023-02-15T10:16:03;44.35;;;23.42;;
58581;SDS011;44361;51.476;5.700;2023-02-15T10:27:12;43.47;;;20.77;;
58581;SDS011;44361;51.476;5.700;2023-02-15T10:30:23;45.28;;;22.27;;
58581;SDS011;44361;51.476;5.700;2023-02-15T10:38:24;45.58;;;22.90;;
58581;SDS011;44361;51.476;5.700;2023-02-15T10:41:17;50.58;;;22.35;;
58581;SDS011;44361;51.476;5.700;2023-02-15T10:47:18;43.65;;;21.77;;
58581;SDS011;44361;51.476;5.700;2023-02-15T11:00:32;43.22;;;22.02;;
58581;SDS011;44361;51.476;5.700;2023-02-15T11:06:02;39.70;;;20.80;;
58581;SDS011;44361;51.476;5.700;2023-02-15T11:08:32;42.50;;;21.13;;
58581;SDS011;44361;51.476;5.700;2023-02-15T11:11:09;37.22;;;19.58;;
58581;SDS011;44361;51.476;5.700;2023-02-15T11:13:39;43.30;;;20.42;;
58581;SDS011;44361;51.476;5.700;2023-02-15T11:16:12;37.40;;;20.48;;
58581;SDS011;44361;51.476;5.700;2023-02-15T11:18:44;39.03;;;19.83;;
58581;SDS011;44361;51.476;5.700;2023-02-15T11:23:47;66.93;;;33.17;;
58581;SDS011;44361;51.476;5.700;2023-02-15T11:26:15;37.15;;;19.23;;
58581;SDS011;44361;51.476;5.700;2023-02-15T11:31:43;41.05;;;22.40;;
58581;SDS011;44361;51.476;5.700;2023-02-15T11:34:36;37.63;;;19.08;;
58581;SDS011;44361;51.476;5.700;2023-02-15T11:37:06;46.13;;;22.25;;
58581;SDS011;44361;51.476;5.700;2023-02-15T11:39:35;37.33;;;19.67;;
58581;SDS011;44361;51.476;5.700;2023-02-15T11:42:11;41.88;;;20.48;;
58581;SDS011;44361;51.476;5.700;2023-02-15T11:44:43;42.72;;;21.10;;
58581;SDS011;44361;51.476;5.700;2023-02-15T11:47:19;40.28;;;20.48;;
58581;SDS011;44361;51.476;5.700;2023-02-15T11:49:44;38.92;;;20.35;;
58581;SDS011;44361;51.476;5.700;2023-02-15T11:52:11;33.75;;;19.10;;
58581;SDS011;44361;51.476;5.700;2023-02-15T11:54:41;39.80;;;20.92;;
58581;SDS011;44361;51.476;5.700;2023-02-15T11:59:37;36.28;;;19.13;;
58581;SDS011;44361;51.476;5.700;2023-02-15T12:02:14;36.55;;;19.48;;
58581;SDS011;44361;51.476;5.700;2023-02-15T12:04:49;39.80;;;21.27;;
58581;SDS011;44361;51.476;5.700;2023-02-15T12:07:20;34.88;;;18.08;;
58581;SDS011;44361;51.476;5.700;2023-02-15T12:12:26;41.53;;;19.88;;
58581;SDS011;44361;51.476;5.700;2023-02-15T12:14:56;40.55;;;19.83;;
58581;SDS011;44361;51.476;5.700;2023-02-15T12:17:26;36.70;;;19.40;;
58581;SDS011;44361;51.476;5.700;2023-02-15T12:19:59;36.38;;;19.88;;
58581;SDS011;44361;51.476;5.700;2023-02-15T12:22:30;35.95;;;19.45;;
58581;SDS011;44361;51.476;5.700;2023-02-15T12:25:02;37.15;;;19.33;;
58581;SDS011;44361;51.476;5.700;2023-02-15T12:27:44;31.13;;;17.98;;
58581;SDS011;44361;51.476;5.700;2023-02-15T12:49:40;32.25;;;17.75;;
58581;SDS011;44361;51.476;5.700;2023-02-15T12:52:23;41.25;;;18.17;;
58581;SDS011;44361;51.476;5.700;2023-02-15T12:54:50;34.90;;;17.90;;
58581;SDS011;44361;51.476;5.700;2023-02-15T12:57:29;33.92;;;17.02;;
58581;SDS011;44361;51.476;5.700;2023-02-15T13:00:00;34.75;;;16.00;;
58581;SDS011;44361;51.476;5.700;2023-02-15T13:02:35;39.45;;;19.42;;
58581;SDS011;44361;51.476;5.700;2023-02-15T13:07:38;38.13;;;18.52;;
58581;SDS011;44361;51.476;5.700;2023-02-15T13:10:18;33.65;;;18.25;;
58581;SDS011;44361;51.476;5.700;2023-02-15T13:13:11;35.63;;;16.75;;
58581;SDS011;44361;51.476;5.700;2023-02-15T13:15:46;37.35;;;18.13;;
58581;SDS011;44361;51.476;5.700;2023-02-15T13:21:06;35.63;;;18.70;;
58581;SDS011;44361;51.476;5.700;2023-02-15T13:23:36;35.70;;;19.45;;
58581;SDS011;44361;51.476;5.700;2023-02-15T13:26:04;33.55;;;18.55;;
58581;SDS011;44361;51.476;5.700;2023-02-15T13:28:38;36.60;;;18.50;;
58581;SDS011;44361;51.476;5.700;2023-02-15T13:31:14;39.08;;;19.05;;
58581;SDS011;44361;51.476;5.700;2023-02-15T13:33:49;39.25;;;18.70;;
58581;SDS011;44361;51.476;5.700;2023-02-15T13:36:23;40.22;;;18.27;;
58581;SDS011;44361;51.476;5.700;2023-02-15T13:42:05;39.03;;;16.95;;
58581;SDS011;44361;51.476;5.700;2023-02-15T13:44:57;41.08;;;18.83;;
58581;SDS011;44361;51.476;5.700;2023-02-15T13:47:55;35.53;;;16.50;;
58581;SDS011;44361;51.476;5.700;2023-02-15T13:55:44;38.90;;;18.13;;
58581;SDS011;44361;51.476;5.700;2023-02-15T13:58:33;34.55;;;17.98;;
58581;SDS011;44361;51.476;5.700;2023-02-15T14:09:35;34.47;;;16.50;;
58581;SDS011;44361;51.476;5.700;2023-02-15T14:15:18;31.63;;;15.13;;
58581;SDS011;44361;51.476;5.700;2023-02-15T14:18:25;32.47;;;15.65;;
58581;SDS011;44361;51.476;5.700;2023-02-15T14:21:27;37.22;;;16.95;;
58581;SDS011;44361;51.476;5.700;2023-02-15T14:26:34;37.40;;;17.10;;
58581;SDS011;44361;51.476;5.700;2023-02-15T14:32:38;33.55;;;16.15;;
58581;SDS011;44361;51.476;5.700;2023-02-15T14:35:13;33.35;;;16.25;;
58581;SDS011;44361;51.476;5.700;2023-02-15T14:40:38;36.13;;;16.65;;
58581;SDS011;44361;51.476;5.700;2023-02-15T14:49:25;32.75;;;15.95;;
58581;SDS011;44361;51.476;5.700;2023-02-15T14:51:59;36.92;;;17.17;;
58581;SDS011;44361;51.476;5.700;2023-02-15T14:59:37;34.13;;;16.48;;
58581;SDS011;44361;51.476;5.700;2023-02-15T15:05:29;34.53;;;16.42;;
58581;SDS011;44361;51.476;5.700;2023-02-15T15:07:54;41.13;;;17.30;;
58581;SDS011;44361;51.476;5.700;2023-02-15T15:12:48;37.22;;;15.43;;
58581;SDS011;44361;51.476;5.700;2023-02-15T15:18:06;46.47;;;17.75;;
58581;SDS011;44361;51.476;5.700;2023-02-15T15:25:44;39.22;;;16.48;;
58581;SDS011;44361;51.476;5.700;2023-02-15T15:39:21;38.45;;;17.67;;
58581;SDS011;44361;51.476;5.700;2023-02-15T15:41:53;42.30;;;18.83;;
58581;SDS011;44361;51.476;5.700;2023-02-15T15:44:55;42.10;;;17.52;;
58581;SDS011;44361;51.476;5.700;2023-02-15T15:50:14;42.25;;;19.80;;
58581;SDS011;44361;51.476;5.700;2023-02-15T15:52:45;40.42;;;17.38;;
58581;SDS011;44361;51.476;5.700;2023-02-15T15:55:20;36.35;;;18.40;;
58581;SDS011;44361;51.476;5.700;2023-02-15T15:57:52;40.58;;;19.35;;
58581;SDS011;44361;51.476;5.700;2023-02-15T16:00:30;48.15;;;20.35;;
58581;SDS011;44361;51.476;5.700;2023-02-15T16:03:00;40.15;;;19.45;;
58581;SDS011;44361;51.476;5.700;2023-02-15T16:05:26;43.03;;;19.10;;
58581;SDS011;44361;51.476;5.700;2023-02-15T16:07:51;38.78;;;17.92;;
58581;SDS011;44361;51.476;5.700;2023-02-15T16:10:24;37.55;;;18.50;;
58581;SDS011;44361;51.476;5.700;2023-02-15T16:12:51;41.00;;;18.67;;
58581;SDS011;44361;51.476;5.700;2023-02-15T16:15:23;35.90;;;17.60;;
58581;SDS011;44361;51.476;5.700;2023-02-15T16:18:00;37.60;;;18.65;;
58581;SDS011;44361;51.476;5.700;2023-02-15T16:20:31;39.65;;;18.33;;
58581;SDS011;44361;51.476;5.700;2023-02-15T16:26:01;34.70;;;18.23;;
58581;SDS011;44361;51.476;5.700;2023-02-15T16:28:40;37.75;;;18.95;;
58581;SDS011;44361;51.476;5.700;2023-02-15T16:31:13;36.45;;;18.27;;
58581;SDS011;44361;51.476;5.700;2023-02-15T16:33:40;36.97;;;17.95;;
58581;SDS011;44361;51.476;5.700;2023-02-15T16:36:26;39.13;;;18.77;;
58581;SDS011;44361;51.476;5.700;2023-02-15T16:41:25;42.20;;;20.42;;
58581;SDS011;44361;51.476;5.700;2023-02-15T16:43:56;44.95;;;19.67;;
58581;SDS011;44361;51.476;5.700;2023-02-15T16:49:01;43.40;;;20.50;;
58581;SDS011;44361;51.476;5.700;2023-02-15T16:51:31;40.15;;;19.08;;
58581;SDS011;44361;51.476;5.700;2023-02-15T16:54:00;38.05;;;19.58;;
58581;SDS011;44361;51.476;5.700;2023-02-15T16:56:32;41.63;;;18.93;;
58581;SDS011;44361;51.476;5.700;2023-02-15T16:58:59;45.28;;;19.15;;
58581;SDS011;44361;51.476;5.700;2023-02-15T17:01:27;42.70;;;19.63;;
58581;SDS011;44361;51.476;5.700;2023-02-15T17:04:11;44.47;;;19.73;;
58581;SDS011;44361;51.476;5.700;2023-02-15T17:06:38;37.22;;;18.63;;
58581;SDS011;44361;51.476;5.700;2023-02-15T17:09:05;42.92;;;18.27;;
58581;SDS011;44361;51.476;5.700;2023-02-15T17:11:42;36.00;;;18.65;;
58581;SDS011;44361;51.476;5.700;2023-02-15T17:16:41;42.55;;;19.30;;
58581;SDS011;44361;51.476;5.700;2023-02-15T17:19:17;42.08;;;19.65;;
58581;SDS011;44361;51.476;5.700;2023-02-15T17:27:06;40.05;;;20.63;;
58581;SDS011;44361;51.476;5.700;2023-02-15T17:29:39;44.80;;;20.52;;
58581;SDS011;44361;51.476;5.700;2023-02-15T17:32:14;45.20;;;22.23;;
58581;SDS011;44361;51.476;5.700;2023-02-15T17:40:24;42.80;;;21.15;;
58581;SDS011;44361;51.476;5.700;2023-02-15T17:42:55;40.97;;;21.35;;
58581;SDS011;44361;51.476;5.700;2023-02-15T17:45:21;50.00;;;21.75;;
58581;SDS011;44361;51.476;5.700;2023-02-15T17:47:49;49.13;;;23.73;;
58581;SDS011;44361;51.476;5.700;2023-02-15T17:50:20;46.22;;;22.50;;
58581;SDS011;44361;51.476;5.700;2023-02-15T17:52:47;47.42;;;22.90;;
58581;SDS011;44361;51.476;5.700;2023-02-15T17:55:14;48.03;;;24.88;;
58581;SDS011;44361;51.476;5.700;2023-02-15T17:58:02;42.63;;;21.90;;
58581;SDS011;44361;51.476;5.700;2023-02-15T18:00:34;44.00;;;21.17;;
58581;SDS011;44361;51.476;5.700;2023-02-15T18:03:20;45.35;;;21.02;;
58581;SDS011;44361;51.476;5.700;2023-02-15T18:06:05;51.60;;;20.73;;
58581;SDS011;44361;51.476;5.700;2023-02-15T18:08:49;49.07;;;23.37;;
58581;SDS011;44361;51.476;5.700;2023-02-15T18:11:33;51.55;;;23.85;;